sensor_id;sensor_type;location;lat;lon;timestamp;P1;durP1;ratioP1;P2;durP2;ratioP2
18905;SDS011;9585;51.018;4.282;2023-03-05T00:01:52;5.68;;;3.00;;
18905;SDS011;9585;51.018;4.282;2023-03-05T00:04:23;5.35;;;2.88;;
18905;SDS011;9585;51.018;4.282;2023-03-05T00:06:50;4.80;;;3.03;;
18905;SDS011;9585;51.018;4.282;2023-03-05T00:09:19;6.35;;;2.80;;
18905;SDS011;9585;51.018;4.282;2023-03-05T00:11:47;6.80;;;2.80;;
18905;SDS011;9585;51.018;4.282;2023-03-05T00:14:14;6.75;;;3.10;;
18905;SDS011;9585;51.018;4.282;2023-03-05T00:16:41;5.10;;;2.45;;
18905;SDS011;9585;51.018;4.282;2023-03-05T00:19:10;4.57;;;2.72;;
18905;SDS011;9585;51.018;4.282;2023-03-05T00:21:38;7.07;;;3.33;;
18905;SDS011;9585;51.018;4.282;2023-03-05T00:24:11;7.05;;;3.22;;
18905;SDS011;9585;51.018;4.282;2023-03-05T00:26:40;7.32;;;3.83;;
18905;SDS011;9585;51.018;4.282;2023-03-05T00:29:09;6.30;;;3.10;;
18905;SDS011;9585;51.018;4.282;2023-03-05T00:31:39;4.35;;;3.30;;
18905;SDS011;9585;51.018;4.282;2023-03-05T00:34:11;4.05;;;2.92;;
18905;SDS011;9585;51.018;4.282;2023-03-05T00:36:41;3.83;;;2.90;;
18905;SDS011;9585;51.018;4.282;2023-03-05T00:39:09;4.38;;;3.03;;
18905;SDS011;9585;51.018;4.282;2023-03-05T00:41:37;5.35;;;2.85;;
18905;SDS011;9585;51.018;4.282;2023-03-05T00:44:05;3.55;;;2.70;;
18905;SDS011;9585;51.018;4.282;2023-03-05T00:46:33;3.40;;;2.95;;
18905;SDS011;9585;51.018;4.282;2023-03-05T00:49:01;6.28;;;3.15;;
18905;SDS011;9585;51.018;4.282;2023-03-05T00:51:30;3.47;;;2.85;;
18905;SDS011;9585;51.018;4.282;2023-03-05T00:53:57;5.47;;;2.97;;
18905;SDS011;9585;51.018;4.282;2023-03-05T00:56:25;4.30;;;3.30;;
18905;SDS011;9585;51.018;4.282;2023-03-05T00:58:52;5.75;;;3.40;;
18905;SDS011;9585;51.018;4.282;2023-03-05T01:01:20;5.07;;;3.50;;
18905;SDS011;9585;51.018;4.282;2023-03-05T01:03:47;3.97;;;3.00;;
18905;SDS011;9585;51.018;4.282;2023-03-05T01:06:15;6.63;;;3.27;;
18905;SDS011;9585;51.018;4.282;2023-03-05T01:08:43;4.47;;;3.07;;
18905;SDS011;9585;51.018;4.282;2023-03-05T01:11:11;5.73;;;3.00;;
18905;SDS011;9585;51.018;4.282;2023-03-05T01:13:39;5.40;;;3.43;;
18905;SDS011;9585;51.018;4.282;2023-03-05T01:16:06;4.15;;;3.03;;
18905;SDS011;9585;51.018;4.282;2023-03-05T01:18:34;5.17;;;3.47;;
18905;SDS011;9585;51.018;4.282;2023-03-05T01:21:02;4.35;;;3.58;;
18905;SDS011;9585;51.018;4.282;2023-03-05T01:23:30;6.50;;;3.17;;
18905;SDS011;9585;51.018;4.282;2023-03-05T01:26:00;5.63;;;3.30;;
18905;SDS011;9585;51.018;4.282;2023-03-05T01:28:27;7.57;;;3.20;;
18905;SDS011;9585;51.018;4.282;2023-03-05T01:30:54;4.10;;;2.97;;
18905;SDS011;9585;51.018;4.282;2023-03-05T01:33:22;4.20;;;2.97;;
18905;SDS011;9585;51.018;4.282;2023-03-05T01:35:49;4.35;;;3.08;;
18905;SDS011;9585;51.018;4.282;2023-03-05T01:38:17;3.92;;;3.03;;
18905;SDS011;9585;51.018;4.282;2023-03-05T01:40:44;4.77;;;3.43;;
18905;SDS011;9585;51.018;4.282;2023-03-05T01:43:21;6.47;;;3.20;;
18905;SDS011;9585;51.018;4.282;2023-03-05T01:48:53;3.85;;;2.88;;
18905;SDS011;9585;51.018;4.282;2023-03-05T01:51:24;5.97;;;3.10;;
18905;SDS011;9585;51.018;4.282;2023-03-05T01:53:55;3.67;;;2.80;;
18905;SDS011;9585;51.018;4.282;2023-03-05T01:56:23;5.88;;;3.30;;
18905;SDS011;9585;51.018;4.282;2023-03-05T01:58:53;4.60;;;3.30;;
18905;SDS011;9585;51.018;4.282;2023-03-05T02:01:28;4.07;;;3.25;;
18905;SDS011;9585;51.018;4.282;2023-03-05T02:04:02;4.55;;;3.20;;
18905;SDS011;9585;51.018;4.282;2023-03-05T02:06:29;5.57;;;3.03;;
18905;SDS011;9585;51.018;4.282;2023-03-05T02:08:57;5.15;;;3.08;;
18905;SDS011;9585;51.018;4.282;2023-03-05T02:11:25;5.03;;;3.30;;
18905;SDS011;9585;51.018;4.282;2023-03-05T02:13:54;5.17;;;3.20;;
18905;SDS011;9585;51.018;4.282;2023-03-05T02:16:22;4.95;;;3.03;;
18905;SDS011;9585;51.018;4.282;2023-03-05T02:18:49;5.18;;;3.15;;
18905;SDS011;9585;51.018;4.282;2023-03-05T02:21:27;4.03;;;2.87;;
18905;SDS011;9585;51.018;4.282;2023-03-05T02:24:01;3.93;;;2.93;;
18905;SDS011;9585;51.018;4.282;2023-03-05T02:26:28;4.93;;;2.80;;
18905;SDS011;9585;51.018;4.282;2023-03-05T02:28:56;3.10;;;2.80;;
18905;SDS011;9585;51.018;4.282;2023-03-05T02:31:26;3.43;;;2.73;;
18905;SDS011;9585;51.018;4.282;2023-03-05T02:33:53;6.00;;;3.20;;
18905;SDS011;9585;51.018;4.282;2023-03-05T02:36:21;4.93;;;3.27;;
18905;SDS011;9585;51.018;4.282;2023-03-05T02:38:50;4.37;;;2.93;;
18905;SDS011;9585;51.018;4.282;2023-03-05T02:41:21;3.53;;;2.92;;
18905;SDS011;9585;51.018;4.282;2023-03-05T02:43:48;6.27;;;3.60;;
18905;SDS011;9585;51.018;4.282;2023-03-05T02:46:16;4.45;;;2.92;;
18905;SDS011;9585;51.018;4.282;2023-03-05T02:48:43;5.40;;;3.03;;
18905;SDS011;9585;51.018;4.282;2023-03-05T02:51:11;5.53;;;3.55;;
18905;SDS011;9585;51.018;4.282;2023-03-05T02:53:38;4.57;;;3.33;;
18905;SDS011;9585;51.018;4.282;2023-03-05T02:56:07;4.22;;;3.10;;
18905;SDS011;9585;51.018;4.282;2023-03-05T02:58:34;3.78;;;2.92;;
18905;SDS011;9585;51.018;4.282;2023-03-05T03:01:02;4.27;;;3.17;;
18905;SDS011;9585;51.018;4.282;2023-03-05T03:03:29;6.30;;;3.40;;
18905;SDS011;9585;51.018;4.282;2023-03-05T03:05:56;4.63;;;3.47;;
18905;SDS011;9585;51.018;4.282;2023-03-05T03:08:24;5.43;;;3.90;;
18905;SDS011;9585;51.018;4.282;2023-03-05T03:10:51;5.30;;;3.20;;
18905;SDS011;9585;51.018;4.282;2023-03-05T03:13:22;6.20;;;3.73;;
18905;SDS011;9585;51.018;4.282;2023-03-05T03:15:50;6.83;;;4.27;;
18905;SDS011;9585;51.018;4.282;2023-03-05T03:18:26;6.67;;;4.47;;
18905;SDS011;9585;51.018;4.282;2023-03-05T03:20:53;7.22;;;4.57;;
18905;SDS011;9585;51.018;4.282;2023-03-05T03:23:21;7.40;;;4.35;;
18905;SDS011;9585;51.018;4.282;2023-03-05T03:25:48;5.50;;;4.10;;
18905;SDS011;9585;51.018;4.282;2023-03-05T03:28:15;8.23;;;4.30;;
18905;SDS011;9585;51.018;4.282;2023-03-05T03:30:44;6.10;;;4.03;;
18905;SDS011;9585;51.018;4.282;2023-03-05T03:33:12;9.67;;;4.77;;
18905;SDS011;9585;51.018;4.282;2023-03-05T03:35:39;7.28;;;4.55;;
18905;SDS011;9585;51.018;4.282;2023-03-05T03:38:06;6.73;;;4.60;;
18905;SDS011;9585;51.018;4.282;2023-03-05T03:40:33;4.93;;;3.75;;
18905;SDS011;9585;51.018;4.282;2023-03-05T03:43:01;9.17;;;4.50;;
18905;SDS011;9585;51.018;4.282;2023-03-05T03:45:29;8.10;;;4.43;;
18905;SDS011;9585;51.018;4.282;2023-03-05T03:47:57;7.03;;;4.43;;
18905;SDS011;9585;51.018;4.282;2023-03-05T03:50:25;6.63;;;4.57;;
18905;SDS011;9585;51.018;4.282;2023-03-05T03:52:52;5.50;;;4.23;;
18905;SDS011;9585;51.018;4.282;2023-03-05T03:55:19;7.17;;;5.00;;
18905;SDS011;9585;51.018;4.282;2023-03-05T03:57:47;7.80;;;4.77;;
18905;SDS011;9585;51.018;4.282;2023-03-05T04:00:14;8.97;;;5.20;;
18905;SDS011;9585;51.018;4.282;2023-03-05T04:02:43;6.70;;;4.57;;
18905;SDS011;9585;51.018;4.282;2023-03-05T04:05:12;7.33;;;5.10;;
18905;SDS011;9585;51.018;4.282;2023-03-05T04:07:39;10.50;;;5.43;;
18905;SDS011;9585;51.018;4.282;2023-03-05T04:10:07;9.93;;;5.80;;
18905;SDS011;9585;51.018;4.282;2023-03-05T04:12:35;10.47;;;5.30;;
18905;SDS011;9585;51.018;4.282;2023-03-05T04:15:02;8.27;;;5.60;;
18905;SDS011;9585;51.018;4.282;2023-03-05T04:17:32;9.07;;;5.30;;
18905;SDS011;9585;51.018;4.282;2023-03-05T04:19:59;10.40;;;6.27;;
18905;SDS011;9585;51.018;4.282;2023-03-05T04:22:30;9.03;;;5.87;;
18905;SDS011;9585;51.018;4.282;2023-03-05T04:24:57;8.60;;;5.97;;
18905;SDS011;9585;51.018;4.282;2023-03-05T04:27:27;8.97;;;6.53;;
18905;SDS011;9585;51.018;4.282;2023-03-05T04:29:55;10.23;;;6.53;;
18905;SDS011;9585;51.018;4.282;2023-03-05T04:32:22;9.93;;;6.37;;
18905;SDS011;9585;51.018;4.282;2023-03-05T04:34:52;8.50;;;6.70;;
18905;SDS011;9585;51.018;4.282;2023-03-05T04:37:20;11.63;;;7.03;;
18905;SDS011;9585;51.018;4.282;2023-03-05T04:39:48;11.27;;;6.93;;
18905;SDS011;9585;51.018;4.282;2023-03-05T04:42:16;12.13;;;7.20;;
18905;SDS011;9585;51.018;4.282;2023-03-05T04:44:44;9.70;;;6.60;;
18905;SDS011;9585;51.018;4.282;2023-03-05T04:47:11;10.17;;;7.73;;
18905;SDS011;9585;51.018;4.282;2023-03-05T04:49:38;11.53;;;7.20;;
18905;SDS011;9585;51.018;4.282;2023-03-05T04:52:06;10.93;;;7.53;;
18905;SDS011;9585;51.018;4.282;2023-03-05T04:54:33;9.87;;;8.20;;
18905;SDS011;9585;51.018;4.282;2023-03-05T04:57:02;10.47;;;7.77;;
18905;SDS011;9585;51.018;4.282;2023-03-05T04:59:30;13.83;;;8.37;;
18905;SDS011;9585;51.018;4.282;2023-03-05T05:01:57;13.40;;;9.30;;
18905;SDS011;9585;51.018;4.282;2023-03-05T05:04:24;13.03;;;9.73;;
18905;SDS011;9585;51.018;4.282;2023-03-05T05:06:53;12.88;;;9.68;;
18905;SDS011;9585;51.018;4.282;2023-03-05T05:09:21;14.68;;;9.48;;
18905;SDS011;9585;51.018;4.282;2023-03-05T05:11:49;12.30;;;9.00;;
18905;SDS011;9585;51.018;4.282;2023-03-05T05:14:18;12.48;;;9.05;;
18905;SDS011;9585;51.018;4.282;2023-03-05T05:16:45;12.60;;;9.67;;
18905;SDS011;9585;51.018;4.282;2023-03-05T05:19:13;13.30;;;9.40;;
18905;SDS011;9585;51.018;4.282;2023-03-05T05:21:40;13.10;;;10.07;;
18905;SDS011;9585;51.018;4.282;2023-03-05T05:24:07;15.27;;;9.83;;
18905;SDS011;9585;51.018;4.282;2023-03-05T05:26:35;14.07;;;10.30;;
18905;SDS011;9585;51.018;4.282;2023-03-05T05:29:02;13.47;;;9.90;;
18905;SDS011;9585;51.018;4.282;2023-03-05T05:31:31;14.17;;;10.00;;
18905;SDS011;9585;51.018;4.282;2023-03-05T05:33:58;15.77;;;10.73;;
18905;SDS011;9585;51.018;4.282;2023-03-05T05:36:26;14.93;;;10.43;;
18905;SDS011;9585;51.018;4.282;2023-03-05T05:38:54;13.97;;;10.27;;
18905;SDS011;9585;51.018;4.282;2023-03-05T05:41:21;13.37;;;10.73;;
18905;SDS011;9585;51.018;4.282;2023-03-05T05:43:49;11.73;;;9.70;;
18905;SDS011;9585;51.018;4.282;2023-03-05T05:46:17;10.80;;;9.07;;
18905;SDS011;9585;51.018;4.282;2023-03-05T05:48:47;14.37;;;10.33;;
18905;SDS011;9585;51.018;4.282;2023-03-05T05:51:15;14.23;;;9.87;;
18905;SDS011;9585;51.018;4.282;2023-03-05T05:53:44;13.93;;;10.00;;
18905;SDS011;9585;51.018;4.282;2023-03-05T05:56:13;11.30;;;9.10;;
18905;SDS011;9585;51.018;4.282;2023-03-05T05:58:42;11.83;;;9.40;;
18905;SDS011;9585;51.018;4.282;2023-03-05T06:01:12;11.40;;;8.70;;
18905;SDS011;9585;51.018;4.282;2023-03-05T06:03:41;12.27;;;9.25;;
18905;SDS011;9585;51.018;4.282;2023-03-05T06:06:11;12.83;;;8.83;;
18905;SDS011;9585;51.018;4.282;2023-03-05T06:08:39;12.75;;;9.00;;
18905;SDS011;9585;51.018;4.282;2023-03-05T06:11:07;10.90;;;9.07;;
18905;SDS011;9585;51.018;4.282;2023-03-05T06:13:34;11.70;;;8.15;;
18905;SDS011;9585;51.018;4.282;2023-03-05T06:16:03;11.07;;;8.70;;
18905;SDS011;9585;51.018;4.282;2023-03-05T06:18:32;11.47;;;8.77;;
18905;SDS011;9585;51.018;4.282;2023-03-05T06:21:00;12.75;;;8.63;;
18905;SDS011;9585;51.018;4.282;2023-03-05T06:23:30;10.13;;;7.90;;
18905;SDS011;9585;51.018;4.282;2023-03-05T06:25:58;11.27;;;8.30;;
18905;SDS011;9585;51.018;4.282;2023-03-05T06:28:26;12.52;;;7.88;;
18905;SDS011;9585;51.018;4.282;2023-03-05T06:30:58;9.77;;;7.87;;
18905;SDS011;9585;51.018;4.282;2023-03-05T06:33:26;12.13;;;8.05;;
18905;SDS011;9585;51.018;4.282;2023-03-05T06:35:54;12.40;;;7.73;;
18905;SDS011;9585;51.018;4.282;2023-03-05T06:38:22;11.75;;;7.38;;
18905;SDS011;9585;51.018;4.282;2023-03-05T06:40:51;13.48;;;7.30;;
18905;SDS011;9585;51.018;4.282;2023-03-05T06:43:18;11.60;;;7.50;;
18905;SDS011;9585;51.018;4.282;2023-03-05T06:45:45;10.73;;;7.60;;
18905;SDS011;9585;51.018;4.282;2023-03-05T06:48:13;9.98;;;7.28;;
18905;SDS011;9585;51.018;4.282;2023-03-05T06:50:40;11.00;;;7.22;;
18905;SDS011;9585;51.018;4.282;2023-03-05T06:53:07;12.25;;;7.43;;
18905;SDS011;9585;51.018;4.282;2023-03-05T06:55:35;10.95;;;7.28;;
18905;SDS011;9585;51.018;4.282;2023-03-05T06:58:07;8.65;;;6.63;;
18905;SDS011;9585;51.018;4.282;2023-03-05T07:00:34;11.50;;;7.40;;
18905;SDS011;9585;51.018;4.282;2023-03-05T07:03:01;9.55;;;6.82;;
18905;SDS011;9585;51.018;4.282;2023-03-05T07:05:29;11.57;;;7.07;;
18905;SDS011;9585;51.018;4.282;2023-03-05T07:07:56;10.30;;;7.63;;
18905;SDS011;9585;51.018;4.282;2023-03-05T07:10:23;11.60;;;7.80;;
18905;SDS011;9585;51.018;4.282;2023-03-05T07:12:51;10.30;;;6.75;;
18905;SDS011;9585;51.018;4.282;2023-03-05T07:15:20;9.05;;;6.65;;
18905;SDS011;9585;51.018;4.282;2023-03-05T07:17:47;10.18;;;7.00;;
18905;SDS011;9585;51.018;4.282;2023-03-05T07:20:14;11.18;;;7.63;;
18905;SDS011;9585;51.018;4.282;2023-03-05T07:22:42;11.13;;;7.07;;
18905;SDS011;9585;51.018;4.282;2023-03-05T07:25:10;8.82;;;6.90;;
18905;SDS011;9585;51.018;4.282;2023-03-05T07:27:38;7.93;;;5.88;;
18905;SDS011;9585;51.018;4.282;2023-03-05T07:30:06;7.70;;;5.82;;
18905;SDS011;9585;51.018;4.282;2023-03-05T07:32:35;7.32;;;5.10;;
18905;SDS011;9585;51.018;4.282;2023-03-05T07:35:03;5.85;;;4.82;;
18905;SDS011;9585;51.018;4.282;2023-03-05T07:37:30;5.22;;;4.22;;
18905;SDS011;9585;51.018;4.282;2023-03-05T07:39:58;7.03;;;4.45;;
18905;SDS011;9585;51.018;4.282;2023-03-05T07:42:25;6.20;;;4.47;;
18905;SDS011;9585;51.018;4.282;2023-03-05T07:44:52;5.78;;;3.53;;
18905;SDS011;9585;51.018;4.282;2023-03-05T07:47:20;5.15;;;4.15;;
18905;SDS011;9585;51.018;4.282;2023-03-05T07:49:49;5.07;;;3.90;;
18905;SDS011;9585;51.018;4.282;2023-03-05T07:52:16;5.82;;;4.43;;
18905;SDS011;9585;51.018;4.282;2023-03-05T07:54:44;6.00;;;4.20;;
18905;SDS011;9585;51.018;4.282;2023-03-05T07:57:11;5.15;;;4.55;;
18905;SDS011;9585;51.018;4.282;2023-03-05T07:59:38;7.93;;;4.70;;
18905;SDS011;9585;51.018;4.282;2023-03-05T08:02:08;5.85;;;4.40;;
18905;SDS011;9585;51.018;4.282;2023-03-05T08:04:37;6.30;;;4.70;;
18905;SDS011;9585;51.018;4.282;2023-03-05T08:07:06;6.78;;;5.00;;
18905;SDS011;9585;51.018;4.282;2023-03-05T08:09:33;7.32;;;5.10;;
18905;SDS011;9585;51.018;4.282;2023-03-05T08:12:01;5.95;;;4.57;;
18905;SDS011;9585;51.018;4.282;2023-03-05T08:14:28;5.88;;;5.05;;
18905;SDS011;9585;51.018;4.282;2023-03-05T08:16:55;6.50;;;5.25;;
18905;SDS011;9585;51.018;4.282;2023-03-05T08:19:23;6.30;;;5.00;;
18905;SDS011;9585;51.018;4.282;2023-03-05T08:21:50;7.90;;;5.18;;
18905;SDS011;9585;51.018;4.282;2023-03-05T08:24:19;6.32;;;5.18;;
18905;SDS011;9585;51.018;4.282;2023-03-05T08:26:47;5.93;;;5.32;;
18905;SDS011;9585;51.018;4.282;2023-03-05T08:29:14;7.68;;;6.32;;
18905;SDS011;9585;51.018;4.282;2023-03-05T08:31:43;7.45;;;5.20;;
18905;SDS011;9585;51.018;4.282;2023-03-05T08:34:11;6.00;;;5.40;;
18905;SDS011;9585;51.018;4.282;2023-03-05T08:36:39;6.93;;;5.50;;
18905;SDS011;9585;51.018;4.282;2023-03-05T08:39:06;6.43;;;5.47;;
18905;SDS011;9585;51.018;4.282;2023-03-05T08:41:35;7.10;;;5.88;;
18905;SDS011;9585;51.018;4.282;2023-03-05T08:44:06;7.75;;;6.53;;
18905;SDS011;9585;51.018;4.282;2023-03-05T08:46:34;8.13;;;7.05;;
18905;SDS011;9585;51.018;4.282;2023-03-05T08:49:01;8.60;;;6.60;;
18905;SDS011;9585;51.018;4.282;2023-03-05T08:51:29;10.63;;;7.05;;
18905;SDS011;9585;51.018;4.282;2023-03-05T08:53:57;7.53;;;6.63;;
18905;SDS011;9585;51.018;4.282;2023-03-05T08:56:25;6.05;;;5.45;;
18905;SDS011;9585;51.018;4.282;2023-03-05T08:58:56;7.38;;;5.95;;
18905;SDS011;9585;51.018;4.282;2023-03-05T09:01:24;7.15;;;5.82;;
18905;SDS011;9585;51.018;4.282;2023-03-05T09:03:51;5.15;;;4.43;;
18905;SDS011;9585;51.018;4.282;2023-03-05T09:06:19;4.82;;;4.38;;
18905;SDS011;9585;51.018;4.282;2023-03-05T09:08:47;5.53;;;4.68;;
18905;SDS011;9585;51.018;4.282;2023-03-05T09:11:14;5.20;;;4.30;;
18905;SDS011;9585;51.018;4.282;2023-03-05T09:13:41;5.07;;;4.32;;
18905;SDS011;9585;51.018;4.282;2023-03-05T09:16:12;5.85;;;3.78;;
18905;SDS011;9585;51.018;4.282;2023-03-05T09:18:41;3.97;;;3.50;;
18905;SDS011;9585;51.018;4.282;2023-03-05T09:21:10;3.40;;;2.80;;
18905;SDS011;9585;51.018;4.282;2023-03-05T09:23:38;3.45;;;2.55;;
18905;SDS011;9585;51.018;4.282;2023-03-05T09:26:06;2.58;;;2.38;;
18905;SDS011;9585;51.018;4.282;2023-03-05T09:28:36;4.90;;;2.20;;
18905;SDS011;9585;51.018;4.282;2023-03-05T09:31:04;2.05;;;1.85;;
18905;SDS011;9585;51.018;4.282;2023-03-05T09:33:34;2.28;;;1.83;;
18905;SDS011;9585;51.018;4.282;2023-03-05T09:36:02;3.10;;;1.83;;
18905;SDS011;9585;51.018;4.282;2023-03-05T09:38:31;2.75;;;1.92;;
18905;SDS011;9585;51.018;4.282;2023-03-05T09:41:01;2.22;;;1.58;;
18905;SDS011;9585;51.018;4.282;2023-03-05T09:43:35;2.00;;;1.45;;
18905;SDS011;9585;51.018;4.282;2023-03-05T09:46:15;1.63;;;1.30;;
18905;SDS011;9585;51.018;4.282;2023-03-05T09:48:55;2.15;;;1.05;;
18905;SDS011;9585;51.018;4.282;2023-03-05T09:51:28;3.65;;;1.23;;
18905;SDS011;9585;51.018;4.282;2023-03-05T09:54:01;2.17;;;1.13;;
18905;SDS011;9585;51.018;4.282;2023-03-05T09:56:31;2.92;;;1.38;;
18905;SDS011;9585;51.018;4.282;2023-03-05T09:59:03;1.80;;;1.05;;
18905;SDS011;9585;51.018;4.282;2023-03-05T10:01:41;2.30;;;1.17;;
18905;SDS011;9585;51.018;4.282;2023-03-05T10:04:11;1.40;;;1.30;;
18905;SDS011;9585;51.018;4.282;2023-03-05T10:06:44;1.42;;;1.00;;
18905;SDS011;9585;51.018;4.282;2023-03-05T10:09:16;3.38;;;1.05;;
18905;SDS011;9585;51.018;4.282;2023-03-05T10:11:58;1.48;;;0.88;;
18905;SDS011;9585;51.018;4.282;2023-03-05T10:14:29;1.35;;;1.00;;
18905;SDS011;9585;51.018;4.282;2023-03-05T10:17:09;1.58;;;0.98;;
18905;SDS011;9585;51.018;4.282;2023-03-05T10:20:23;2.35;;;0.85;;
18905;SDS011;9585;51.018;4.282;2023-03-05T10:23:12;1.52;;;0.85;;
18905;SDS011;9585;51.018;4.282;2023-03-05T10:25:53;2.50;;;1.63;;
18905;SDS011;9585;51.018;4.282;2023-03-05T10:28:46;2.10;;;1.60;;
18905;SDS011;9585;51.018;4.282;2023-03-05T10:31:34;2.25;;;1.70;;
18905;SDS011;9585;51.018;4.282;2023-03-05T10:34:11;4.07;;;2.38;;
18905;SDS011;9585;51.018;4.282;2023-03-05T10:42:58;3.55;;;2.90;;
18905;SDS011;9585;51.018;4.282;2023-03-05T10:45:34;3.63;;;2.80;;
18905;SDS011;9585;51.018;4.282;2023-03-05T10:48:06;6.47;;;3.47;;
18905;SDS011;9585;51.018;4.282;2023-03-05T10:50:43;4.55;;;3.28;;
18905;SDS011;9585;51.018;4.282;2023-03-05T10:53:22;3.45;;;2.28;;
18905;SDS011;9585;51.018;4.282;2023-03-05T10:55:54;5.05;;;2.80;;
18905;SDS011;9585;51.018;4.282;2023-03-05T10:58:26;2.70;;;1.98;;
18905;SDS011;9585;51.018;4.282;2023-03-05T11:00:56;4.20;;;2.42;;
18905;SDS011;9585;51.018;4.282;2023-03-05T11:06:24;2.40;;;2.00;;
18905;SDS011;9585;51.018;4.282;2023-03-05T11:08:55;2.90;;;2.10;;
18905;SDS011;9585;51.018;4.282;2023-03-05T11:11:42;3.65;;;3.15;;
18905;SDS011;9585;51.018;4.282;2023-03-05T11:14:21;4.55;;;2.65;;
18905;SDS011;9585;51.018;4.282;2023-03-05T11:16:55;6.15;;;3.30;;
18905;SDS011;9585;51.018;4.282;2023-03-05T11:19:30;6.03;;;4.30;;
18905;SDS011;9585;51.018;4.282;2023-03-05T11:22:06;6.72;;;4.85;;
18905;SDS011;9585;51.018;4.282;2023-03-05T11:24:44;6.22;;;5.63;;
18905;SDS011;9585;51.018;4.282;2023-03-05T11:27:49;8.23;;;6.00;;
18905;SDS011;9585;51.018;4.282;2023-03-05T11:30:20;6.80;;;6.10;;
18905;SDS011;9585;51.018;4.282;2023-03-05T11:33:00;7.50;;;6.68;;
18905;SDS011;9585;51.018;4.282;2023-03-05T11:35:34;6.90;;;6.22;;
18905;SDS011;9585;51.018;4.282;2023-03-05T11:38:03;8.80;;;7.65;;
18905;SDS011;9585;51.018;4.282;2023-03-05T11:40:32;8.10;;;7.15;;
18905;SDS011;9585;51.018;4.282;2023-03-05T11:43:04;7.10;;;6.40;;
18905;SDS011;9585;51.018;4.282;2023-03-05T11:45:31;8.80;;;6.63;;
18905;SDS011;9585;51.018;4.282;2023-03-05T11:48:00;8.65;;;6.43;;
18905;SDS011;9585;51.018;4.282;2023-03-05T11:50:34;7.13;;;6.05;;
18905;SDS011;9585;51.018;4.282;2023-03-05T11:53:04;4.30;;;3.83;;
18905;SDS011;9585;51.018;4.282;2023-03-05T11:55:38;4.50;;;3.00;;
18905;SDS011;9585;51.018;4.282;2023-03-05T12:00:58;4.18;;;2.42;;
18905;SDS011;9585;51.018;4.282;2023-03-05T12:03:28;3.22;;;2.92;;
18905;SDS011;9585;51.018;4.282;2023-03-05T12:06:00;3.70;;;3.20;;
18905;SDS011;9585;51.018;4.282;2023-03-05T12:08:33;3.28;;;2.70;;
18905;SDS011;9585;51.018;4.282;2023-03-05T12:11:04;2.53;;;2.30;;
18905;SDS011;9585;51.018;4.282;2023-03-05T12:13:39;2.08;;;1.80;;
18905;SDS011;9585;51.018;4.282;2023-03-05T12:16:15;2.90;;;1.90;;
18905;SDS011;9585;51.018;4.282;2023-03-05T12:18:51;2.35;;;2.15;;
18905;SDS011;9585;51.018;4.282;2023-03-05T12:21:35;2.58;;;1.30;;
18905;SDS011;9585;51.018;4.282;2023-03-05T12:24:31;1.10;;;1.00;;
18905;SDS011;9585;51.018;4.282;2023-03-05T12:27:09;1.85;;;1.15;;
18905;SDS011;9585;51.018;4.282;2023-03-05T12:29:43;2.78;;;1.50;;
18905;SDS011;9585;51.018;4.282;2023-03-05T12:35:29;2.00;;;1.80;;
18905;SDS011;9585;51.018;4.282;2023-03-05T12:44:18;3.42;;;2.47;;
18905;SDS011;9585;51.018;4.282;2023-03-05T12:49:47;3.85;;;2.38;;
18905;SDS011;9585;51.018;4.282;2023-03-05T12:55:19;3.65;;;2.20;;
18905;SDS011;9585;51.018;4.282;2023-03-05T12:57:51;2.95;;;2.00;;
18905;SDS011;9585;51.018;4.282;2023-03-05T13:00:21;2.83;;;1.48;;
18905;SDS011;9585;51.018;4.282;2023-03-05T13:02:55;1.67;;;1.30;;
18905;SDS011;9585;51.018;4.282;2023-03-05T13:05:26;3.30;;;1.70;;
18905;SDS011;9585;51.018;4.282;2023-03-05T13:08:08;4.00;;;2.20;;
18905;SDS011;9585;51.018;4.282;2023-03-05T13:10:36;4.13;;;2.10;;
18905;SDS011;9585;51.018;4.282;2023-03-05T13:13:05;2.63;;;2.15;;
18905;SDS011;9585;51.018;4.282;2023-03-05T13:15:37;2.88;;;1.95;;
18905;SDS011;9585;51.018;4.282;2023-03-05T13:18:11;2.78;;;1.90;;
18905;SDS011;9585;51.018;4.282;2023-03-05T13:20:45;2.65;;;1.83;;
18905;SDS011;9585;51.018;4.282;2023-03-05T13:23:18;2.25;;;1.50;;
18905;SDS011;9585;51.018;4.282;2023-03-05T13:28:37;3.28;;;2.10;;
18905;SDS011;9585;51.018;4.282;2023-03-05T13:31:11;3.03;;;2.63;;
18905;SDS011;9585;51.018;4.282;2023-03-05T13:33:49;3.97;;;2.70;;
18905;SDS011;9585;51.018;4.282;2023-03-05T13:36:18;2.83;;;2.00;;
18905;SDS011;9585;51.018;4.282;2023-03-05T13:38:46;2.33;;;1.63;;
18905;SDS011;9585;51.018;4.282;2023-03-05T13:41:18;2.30;;;1.60;;
18905;SDS011;9585;51.018;4.282;2023-03-05T13:43:47;2.22;;;1.30;;
18905;SDS011;9585;51.018;4.282;2023-03-05T13:46:26;1.55;;;0.95;;
18905;SDS011;9585;51.018;4.282;2023-03-05T13:48:59;1.10;;;0.93;;
18905;SDS011;9585;51.018;4.282;2023-03-05T13:51:44;2.08;;;1.25;;
18905;SDS011;9585;51.018;4.282;2023-03-05T13:54:13;1.95;;;1.40;;
18905;SDS011;9585;51.018;4.282;2023-03-05T13:56:48;2.03;;;1.40;;
18905;SDS011;9585;51.018;4.282;2023-03-05T13:59:18;1.60;;;1.20;;
18905;SDS011;9585;51.018;4.282;2023-03-05T14:01:47;3.00;;;1.17;;
18905;SDS011;9585;51.018;4.282;2023-03-05T14:04:18;2.92;;;1.55;;
18905;SDS011;9585;51.018;4.282;2023-03-05T14:06:51;2.05;;;1.35;;
18905;SDS011;9585;51.018;4.282;2023-03-05T14:09:22;1.77;;;1.30;;
18905;SDS011;9585;51.018;4.282;2023-03-05T14:11:52;2.33;;;1.50;;
18905;SDS011;9585;51.018;4.282;2023-03-05T14:14:20;1.77;;;1.55;;
18905;SDS011;9585;51.018;4.282;2023-03-05T14:16:49;2.97;;;1.60;;
18905;SDS011;9585;51.018;4.282;2023-03-05T14:19:35;2.10;;;1.60;;
18905;SDS011;9585;51.018;4.282;2023-03-05T14:22:04;1.73;;;1.15;;
18905;SDS011;9585;51.018;4.282;2023-03-05T14:24:32;1.77;;;1.30;;
18905;SDS011;9585;51.018;4.282;2023-03-05T14:27:00;1.13;;;1.02;;
18905;SDS011;9585;51.018;4.282;2023-03-05T14:29:33;3.63;;;1.20;;
18905;SDS011;9585;51.018;4.282;2023-03-05T14:32:02;2.00;;;1.58;;
18905;SDS011;9585;51.018;4.282;2023-03-05T14:34:32;2.28;;;1.58;;
18905;SDS011;9585;51.018;4.282;2023-03-05T14:37:04;3.17;;;1.60;;
18905;SDS011;9585;51.018;4.282;2023-03-05T14:39:38;2.95;;;1.50;;
18905;SDS011;9585;51.018;4.282;2023-03-05T14:42:23;2.80;;;1.98;;
18905;SDS011;9585;51.018;4.282;2023-03-05T14:44:52;2.55;;;2.22;;
18905;SDS011;9585;51.018;4.282;2023-03-05T14:47:21;3.22;;;1.58;;
18905;SDS011;9585;51.018;4.282;2023-03-05T14:49:49;2.50;;;1.77;;
18905;SDS011;9585;51.018;4.282;2023-03-05T14:52:17;2.55;;;1.85;;
18905;SDS011;9585;51.018;4.282;2023-03-05T14:54:46;3.00;;;2.22;;
18905;SDS011;9585;51.018;4.282;2023-03-05T14:57:15;3.20;;;2.90;;
18905;SDS011;9585;51.018;4.282;2023-03-05T14:59:45;4.18;;;2.92;;
18905;SDS011;9585;51.018;4.282;2023-03-05T15:02:13;3.58;;;3.00;;
18905;SDS011;9585;51.018;4.282;2023-03-05T15:04:41;2.92;;;2.63;;
18905;SDS011;9585;51.018;4.282;2023-03-05T15:07:16;3.88;;;2.20;;
18905;SDS011;9585;51.018;4.282;2023-03-05T15:09:46;3.78;;;1.90;;
18905;SDS011;9585;51.018;4.282;2023-03-05T15:12:14;2.28;;;1.63;;
18905;SDS011;9585;51.018;4.282;2023-03-05T15:14:42;2.13;;;1.42;;
18905;SDS011;9585;51.018;4.282;2023-03-05T15:17:14;4.07;;;1.40;;
18905;SDS011;9585;51.018;4.282;2023-03-05T15:19:45;2.65;;;1.85;;
18905;SDS011;9585;51.018;4.282;2023-03-05T15:22:15;3.97;;;3.38;;
18905;SDS011;9585;51.018;4.282;2023-03-05T15:24:43;2.95;;;2.22;;
18905;SDS011;9585;51.018;4.282;2023-03-05T15:27:11;2.45;;;2.25;;
18905;SDS011;9585;51.018;4.282;2023-03-05T15:29:39;3.38;;;1.85;;
18905;SDS011;9585;51.018;4.282;2023-03-05T15:32:07;3.08;;;2.30;;
18905;SDS011;9585;51.018;4.282;2023-03-05T15:34:34;3.65;;;2.40;;
18905;SDS011;9585;51.018;4.282;2023-03-05T15:37:02;3.20;;;2.72;;
18905;SDS011;9585;51.018;4.282;2023-03-05T15:39:31;4.80;;;2.75;;
18905;SDS011;9585;51.018;4.282;2023-03-05T15:41:59;4.88;;;3.00;;
18905;SDS011;9585;51.018;4.282;2023-03-05T15:44:26;4.57;;;3.08;;
18905;SDS011;9585;51.018;4.282;2023-03-05T15:46:54;4.03;;;3.15;;
18905;SDS011;9585;51.018;4.282;2023-03-05T15:49:22;4.43;;;3.22;;